createdAt,value
2023-11-25T00:01:42.486Z,68.05
2023-11-25T00:04:09.674Z,67.90
2023-11-25T00:06:38.035Z,67.90
2023-11-25T00:09:05.196Z,67.69
2023-11-25T00:11:32.236Z,67.03
2023-11-25T00:14:00.339Z,66.98
2023-11-25T00:16:27.493Z,67.09
2023-11-25T00:18:55.140Z,67.38
2023-11-25T00:21:22.202Z,67.26
2023-11-25T00:23:49.181Z,67.46
2023-11-25T00:26:16.272Z,66.34
2023-11-25T00:28:53.043Z,66.30
2023-11-25T00:31:20.336Z,66.59
2023-11-25T00:33:47.339Z,66.80
2023-11-25T00:36:14.334Z,66.74
2023-11-25T00:38:41.440Z,66.81
2023-11-25T00:41:08.414Z,66.83
2023-11-25T00:43:35.521Z,67.40
2023-11-25T00:46:04.429Z,66.99
2023-11-25T00:48:32.673Z,67.01
2023-11-25T00:50:59.701Z,66.82
2023-11-25T00:53:26.746Z,66.71
2023-11-25T00:55:53.746Z,66.77
2023-11-25T00:58:20.751Z,67.07
2023-11-25T01:00:48.076Z,66.96
2023-11-25T01:03:15.099Z,66.68
2023-11-25T01:05:42.217Z,66.49
2023-11-25T01:08:09.424Z,66.21
2023-11-25T01:10:36.657Z,66.16
2023-11-25T01:13:04.382Z,66.46
2023-11-25T01:15:31.528Z,66.53
2023-11-25T01:17:58.589Z,66.43
2023-11-25T01:20:25.593Z,66.85
2023-11-25T01:22:52.659Z,66.59
2023-11-25T01:25:19.798Z,66.80
2023-11-25T01:27:47.036Z,66.35
2023-11-25T01:30:14.694Z,66.56
2023-11-25T01:32:42.287Z,66.19
2023-11-25T01:35:09.514Z,66.32
2023-11-25T01:37:36.710Z,66.56
2023-11-25T01:40:06.909Z,66.60
2023-11-25T01:42:34.055Z,66.72
2023-11-25T01:45:01.101Z,66.04
2023-11-25T01:47:28.361Z,66.41
2023-11-25T01:49:55.515Z,66.92
2023-11-25T01:52:23.720Z,66.87
2023-11-25T01:54:52.325Z,67.14
2023-11-25T01:57:21.888Z,67.17
2023-11-25T01:59:50.004Z,66.91
2023-11-25T02:02:22.044Z,66.59
2023-11-25T02:04:49.274Z,66.73
2023-11-25T02:07:17.765Z,66.77
2023-11-25T02:09:45.048Z,67.26
2023-11-25T02:12:12.502Z,66.94
2023-11-25T02:14:42.266Z,67.45
2023-11-25T02:17:09.456Z,67.09
2023-11-25T02:19:36.592Z,66.84
2023-11-25T02:22:07.910Z,66.91
2023-11-25T02:24:37.985Z,66.76
2023-11-25T02:27:06.621Z,67.07
2023-11-25T02:29:34.261Z,66.54
2023-11-25T02:32:01.490Z,67.02
2023-11-25T02:34:28.973Z,67.34
2023-11-25T02:36:59.882Z,67.53
2023-11-25T02:39:29.034Z,67.53
2023-11-25T02:41:56.004Z,67.12
2023-11-25T02:44:23.193Z,67.09
2023-11-25T02:46:51.134Z,67.83
2023-11-25T02:49:18.399Z,68.25
2023-11-25T02:51:49.700Z,67.80
2023-11-25T02:54:17.660Z,68.08
2023-11-25T02:56:44.876Z,68.59
2023-11-25T02:59:13.936Z,68.53
2023-11-25T03:01:50.548Z,68.69
2023-11-25T03:04:21.214Z,68.92
2023-11-25T03:06:52.713Z,68.58
2023-11-25T03:09:20.438Z,68.96
2023-11-25T03:11:48.173Z,68.56
2023-11-25T03:14:17.567Z,68.13
2023-11-25T03:16:45.095Z,68.05
2023-11-25T03:19:12.632Z,68.29
2023-11-25T03:21:40.158Z,68.26
2023-11-25T03:24:09.470Z,67.83
2023-11-25T03:26:36.906Z,67.24
2023-11-25T03:29:04.039Z,67.04
2023-11-25T03:31:31.067Z,67.25
2023-11-25T03:33:58.286Z,67.77
2023-11-25T03:36:25.348Z,67.83
2023-11-25T03:38:52.552Z,67.25
2023-11-25T03:41:21.107Z,66.51
2023-11-25T03:43:48.178Z,66.17
2023-11-25T03:46:15.421Z,65.81
2023-11-25T03:54:18.915Z,66.41
2023-11-25T03:56:46.241Z,66.58
2023-11-25T03:59:13.243Z,67.00
2023-11-25T04:01:43.235Z,66.54
2023-11-25T04:04:12.080Z,66.77
2023-11-25T04:06:39.261Z,66.83
2023-11-25T04:09:06.436Z,66.37
2023-11-25T04:11:33.418Z,66.14
2023-11-25T04:14:00.834Z,66.25
2023-11-25T04:16:27.943Z,66.75
2023-11-25T04:18:55.700Z,66.76
2023-11-25T04:21:23.069Z,66.91
2023-11-25T04:23:54.264Z,67.08
2023-11-25T04:26:21.392Z,67.04
2023-11-25T04:28:49.137Z,66.93
2023-11-25T04:31:16.355Z,66.47
2023-11-25T04:33:43.549Z,66.00
2023-11-25T04:36:19.244Z,66.00
2023-11-25T04:38:47.676Z,65.93
2023-11-25T04:41:14.774Z,66.34
2023-11-25T04:43:41.839Z,66.42
2023-11-25T04:46:12.671Z,65.99
2023-11-25T04:48:40.311Z,66.44
2023-11-25T04:51:07.385Z,66.56
2023-11-25T04:53:34.426Z,66.52
2023-11-25T04:56:01.409Z,66.55
2023-11-25T04:58:28.544Z,66.94
2023-11-25T05:00:55.684Z,66.77
2023-11-25T05:03:23.268Z,66.55
2023-11-25T05:05:50.341Z,66.76
2023-11-25T05:08:18.285Z,67.22
2023-11-25T05:10:45.283Z,67.29
2023-11-25T05:13:14.097Z,67.34
2023-11-25T05:15:43.135Z,67.56
2023-11-25T05:18:10.107Z,67.79
2023-11-25T05:20:37.164Z,68.62
2023-11-25T05:23:07.204Z,69.58
2023-11-25T05:25:34.924Z,70.20
2023-11-25T05:28:02.169Z,70.56
2023-11-25T05:30:29.203Z,71.27
2023-11-25T05:32:56.235Z,71.11
2023-11-25T05:35:23.379Z,71.41
2023-11-25T05:37:50.576Z,71.21
2023-11-25T05:40:17.684Z,70.52
2023-11-25T05:42:49.989Z,70.09
2023-11-25T05:45:19.667Z,69.63
2023-11-25T05:47:47.059Z,69.17
2023-11-25T05:50:21.617Z,69.58
2023-11-25T05:52:49.420Z,69.51
2023-11-25T05:55:16.747Z,69.36
2023-11-25T05:57:45.831Z,69.34
2023-11-25T06:00:13.621Z,70.02
2023-11-25T06:02:40.953Z,70.40
2023-11-25T06:05:08.780Z,70.38
2023-11-25T06:07:36.209Z,69.99
2023-11-25T06:10:04.889Z,69.55
2023-11-25T06:12:33.244Z,69.43
2023-11-25T06:15:00.724Z,69.84
2023-11-25T06:17:28.092Z,70.23
2023-11-25T06:19:55.502Z,70.49
2023-11-25T06:22:22.992Z,70.70
2023-11-25T06:24:49.982Z,70.98
2023-11-25T06:27:21.089Z,70.79
2023-11-25T06:29:48.712Z,70.46
2023-11-25T06:32:15.692Z,69.74
2023-11-25T06:34:42.817Z,69.14
2023-11-25T06:37:09.889Z,69.24
2023-11-25T06:39:36.971Z,68.99
2023-11-25T06:42:07.450Z,68.90
2023-11-25T06:44:34.556Z,68.59
2023-11-25T06:47:01.912Z,68.53
2023-11-25T06:49:29.083Z,68.50
2023-11-25T06:51:56.150Z,69.06
2023-11-25T06:54:24.864Z,69.57
2023-11-25T06:56:52.387Z,69.59
2023-11-25T06:59:19.626Z,69.40
2023-11-25T07:01:47.391Z,69.88
2023-11-25T07:04:15.475Z,69.84
2023-11-25T07:06:42.494Z,70.24
2023-11-25T07:09:10.787Z,71.61
2023-11-25T07:11:38.565Z,72.20
2023-11-25T07:14:06.567Z,72.52
2023-11-25T07:16:34.730Z,72.87
2023-11-25T07:19:02.286Z,72.45
2023-11-25T07:21:29.267Z,71.89
2023-11-25T07:23:56.839Z,71.19
2023-11-25T07:26:24.065Z,71.16
2023-11-25T07:28:51.085Z,71.43
2023-11-25T07:31:18.229Z,71.98
2023-11-25T07:33:47.047Z,72.01
2023-11-25T07:36:15.088Z,72.33
2023-11-25T07:38:42.096Z,72.57
2023-11-25T07:41:16.759Z,72.81
2023-11-25T07:43:43.889Z,72.99
2023-11-25T07:46:12.676Z,73.11
2023-11-25T07:48:39.864Z,73.12
2023-11-25T07:51:06.877Z,72.44
2023-11-25T07:53:33.909Z,72.94
2023-11-25T07:56:02.487Z,73.17
2023-11-25T07:58:30.654Z,73.12
2023-11-25T08:00:59.602Z,73.16
2023-11-25T08:03:26.637Z,72.98
2023-11-25T08:05:54.420Z,73.42
2023-11-25T08:08:22.086Z,73.27
2023-11-25T08:10:49.383Z,73.46
2023-11-25T08:13:19.650Z,73.22
2023-11-25T08:15:46.891Z,73.21
2023-11-25T08:18:16.747Z,72.93
2023-11-25T08:20:43.805Z,73.19
2023-11-25T08:23:11.308Z,73.43
2023-11-25T08:25:38.488Z,73.91
2023-11-25T08:28:05.708Z,74.13
2023-11-25T08:30:32.698Z,74.61
2023-11-25T08:33:01.253Z,74.49
2023-11-25T08:35:28.359Z,74.22
2023-11-25T08:37:55.545Z,74.17
2023-11-25T08:40:23.334Z,74.09
2023-11-25T08:42:50.961Z,74.17
2023-11-25T08:45:18.250Z,74.48
2023-11-25T08:47:45.917Z,74.20
2023-11-25T08:50:17.412Z,74.16
2023-11-25T08:52:46.514Z,74.31
2023-11-25T08:55:18.705Z,74.43
2023-11-25T08:57:46.318Z,74.22
2023-11-25T09:00:19.970Z,74.13
2023-11-25T09:02:49.772Z,74.59
2023-11-25T09:05:17.116Z,74.08
2023-11-25T09:07:45.387Z,73.75
2023-11-25T09:10:12.839Z,73.09
2023-11-25T09:12:41.382Z,72.87
2023-11-25T09:15:10.180Z,72.85
2023-11-25T09:17:40.079Z,72.68
2023-11-25T09:20:11.376Z,71.83
2023-11-25T09:22:41.523Z,71.97
2023-11-25T09:25:13.537Z,71.60
2023-11-25T09:27:41.650Z,71.20
2023-11-25T09:30:13.267Z,71.59
2023-11-25T09:32:45.753Z,71.64
2023-11-25T09:35:14.325Z,71.50
2023-11-25T09:37:43.223Z,71.67
2023-11-25T09:40:16.525Z,71.95
2023-11-25T09:42:45.365Z,72.15
2023-11-25T09:45:14.245Z,72.52
2023-11-25T09:47:45.428Z,73.16
2023-11-25T09:50:17.727Z,73.17
2023-11-25T09:52:50.338Z,73.41
2023-11-25T09:55:20.072Z,73.26
2023-11-25T09:57:51.462Z,73.46
2023-11-25T10:00:19.190Z,73.76
2023-11-25T10:02:53.128Z,73.84
2023-11-25T10:05:20.210Z,73.51
2023-11-25T10:07:47.988Z,73.71
2023-11-25T10:10:17.926Z,73.31
2023-11-25T10:12:44.940Z,73.34
2023-11-25T10:15:12.009Z,73.34
2023-11-25T10:17:39.473Z,73.10
2023-11-25T10:20:24.074Z,72.90
2023-11-25T10:22:55.166Z,73.84
2023-11-25T10:25:23.011Z,74.22
2023-11-25T10:27:52.736Z,74.63
2023-11-25T10:30:22.176Z,75.50
2023-11-25T10:32:51.307Z,75.51
2023-11-25T10:35:20.213Z,75.37
2023-11-25T10:37:47.663Z,74.98
2023-11-25T10:40:18.365Z,74.95
2023-11-25T10:42:49.610Z,74.85
2023-11-25T10:45:17.594Z,74.94
2023-11-25T10:47:45.270Z,74.64
2023-11-25T10:50:14.841Z,74.43
2023-11-25T10:52:44.920Z,74.32
2023-11-25T10:55:12.309Z,74.04
2023-11-25T10:57:41.868Z,74.46
2023-11-25T11:00:13.022Z,74.42
2023-11-25T11:03:06.979Z,74.38
2023-11-25T11:05:50.588Z,73.82
2023-11-25T11:08:22.198Z,72.83
2023-11-25T11:10:55.858Z,71.40
2023-11-25T11:13:30.544Z,70.34
2023-11-25T11:16:01.660Z,70.77
2023-11-25T11:18:37.579Z,71.96
2023-11-25T11:21:07.899Z,72.43
2023-11-25T11:23:38.819Z,72.03
2023-11-25T11:26:29.467Z,72.69
2023-11-25T11:29:15.029Z,73.17
2023-11-25T11:31:48.479Z,73.38
2023-11-25T11:34:15.801Z,73.38
2023-11-25T11:36:42.804Z,73.71
2023-11-25T11:39:12.964Z,74.12
2023-11-25T11:41:40.513Z,74.04
2023-11-25T11:44:09.050Z,74.06
2023-11-25T11:46:40.111Z,73.85
2023-11-25T11:49:09.416Z,73.84
2023-11-25T11:51:36.703Z,72.86
2023-11-25T11:54:21.983Z,72.36
2023-11-25T11:57:02.373Z,72.40
2023-11-25T12:00:14.595Z,72.97
2023-11-25T12:02:44.558Z,73.37
2023-11-25T12:05:12.325Z,73.23
2023-11-25T12:07:40.160Z,73.86
2023-11-25T12:10:07.872Z,73.81
2023-11-25T12:12:41.961Z,73.73
2023-11-25T12:15:10.160Z,73.79
2023-11-25T12:17:37.704Z,73.32
2023-11-25T12:20:09.831Z,74.32
2023-11-25T12:22:37.034Z,74.57
2023-11-25T12:25:05.570Z,74.81
2023-11-25T12:27:34.200Z,74.73
2023-11-25T12:30:01.649Z,74.39
2023-11-25T12:32:28.717Z,74.52
2023-11-25T12:34:55.821Z,74.44
2023-11-25T12:37:23.094Z,74.52
2023-11-25T12:39:52.012Z,74.50
2023-11-25T12:42:25.217Z,74.37
2023-11-25T12:44:52.358Z,74.22
2023-11-25T12:47:20.247Z,74.07
2023-11-25T12:49:48.852Z,74.14
2023-11-25T12:52:24.581Z,74.74
2023-11-25T12:54:54.170Z,74.33
2023-11-25T12:57:27.301Z,74.29
2023-11-25T12:59:56.774Z,74.58
2023-11-25T13:02:23.982Z,74.29
2023-11-25T13:04:51.633Z,74.66
2023-11-25T13:07:31.953Z,74.76
2023-11-25T13:09:59.600Z,74.44
2023-11-25T13:12:29.696Z,74.68
2023-11-25T13:14:57.038Z,75.01
2023-11-25T13:17:25.210Z,75.53
2023-11-25T13:19:52.384Z,75.92
2023-11-25T13:22:20.799Z,75.21
2023-11-25T13:24:47.977Z,75.00
2023-11-25T13:27:15.170Z,75.07
2023-11-25T13:29:45.910Z,73.99
2023-11-25T13:32:13.008Z,74.24
2023-11-25T13:34:41.455Z,74.55
2023-11-25T13:37:09.290Z,74.46
2023-11-25T13:39:37.192Z,74.17
2023-11-25T13:42:06.196Z,73.04
2023-11-25T13:44:33.417Z,73.27
2023-11-25T13:47:00.593Z,73.34
2023-11-25T13:49:30.735Z,73.13
2023-11-25T13:51:58.600Z,72.76
2023-11-25T13:54:30.139Z,72.18
2023-11-25T13:56:57.782Z,72.18
2023-11-25T13:59:25.508Z,72.20
2023-11-25T14:01:52.767Z,71.94
2023-11-25T14:04:20.846Z,71.78
2023-11-25T14:06:51.764Z,71.69
2023-11-25T14:09:19.571Z,70.71
2023-11-25T14:11:47.020Z,70.29
2023-11-25T14:14:14.266Z,70.03
2023-11-25T14:16:46.430Z,70.11
2023-11-25T14:19:13.778Z,70.65
2023-11-25T14:21:40.719Z,69.89
2023-11-25T14:24:08.098Z,70.22
2023-11-25T14:26:38.418Z,70.35
2023-11-25T14:29:05.808Z,70.79
2023-11-25T14:31:35.677Z,70.67
2023-11-25T14:34:03.092Z,70.20
2023-11-25T14:36:31.655Z,69.41
2023-11-25T14:38:58.822Z,68.89
2023-11-25T14:41:26.451Z,69.26
2023-11-25T14:43:54.855Z,69.71
2023-11-25T14:46:23.412Z,69.97
2023-11-25T14:48:50.575Z,70.27
2023-11-25T14:51:17.554Z,70.47
2023-11-25T14:53:44.580Z,70.98
2023-11-25T14:56:12.083Z,71.21
2023-11-25T14:58:39.320Z,71.53
2023-11-25T15:01:07.226Z,71.71
2023-11-25T15:03:34.382Z,71.54
2023-11-25T15:06:01.423Z,71.66
2023-11-25T15:08:28.386Z,71.74
2023-11-25T15:10:57.466Z,72.02
2023-11-25T15:13:24.549Z,72.38
2023-11-25T15:15:52.614Z,72.24
2023-11-25T15:18:19.871Z,72.41
2023-11-25T15:20:47.026Z,71.76
2023-11-25T15:23:14.295Z,72.08
2023-11-25T15:25:41.633Z,72.23
2023-11-25T15:28:08.921Z,72.36
2023-11-25T15:30:35.911Z,72.14
2023-11-25T15:33:03.217Z,71.89
2023-11-25T15:35:30.481Z,71.85
2023-11-25T15:37:57.528Z,72.13
2023-11-25T15:40:24.670Z,72.08
2023-11-25T15:42:51.765Z,72.10
2023-11-25T15:45:19.122Z,71.89
2023-11-25T15:47:46.915Z,72.20
2023-11-25T15:50:16.321Z,71.91
2023-11-25T15:52:43.773Z,71.82
2023-11-25T15:55:12.874Z,72.24
2023-11-25T15:57:40.194Z,71.97
2023-11-25T16:00:15.098Z,72.29
2023-11-25T16:02:43.242Z,72.31
2023-11-25T16:05:15.490Z,72.41
2023-11-25T16:07:42.863Z,72.23
2023-11-25T16:10:11.413Z,71.87
2023-11-25T16:12:39.631Z,71.76
2023-11-25T16:15:10.344Z,71.97
2023-11-25T16:17:38.582Z,72.18
2023-11-25T16:20:07.180Z,71.97
2023-11-25T16:22:34.385Z,71.92
2023-11-25T16:25:01.405Z,71.65
2023-11-25T16:27:28.658Z,71.83
2023-11-25T16:29:56.549Z,72.05
2023-11-25T16:32:23.813Z,72.08
2023-11-25T16:34:50.992Z,71.83
2023-11-25T16:37:18.102Z,71.81
2023-11-25T16:39:45.104Z,71.87
2023-11-25T16:42:12.193Z,72.00
2023-11-25T16:44:39.585Z,71.85
2023-11-25T16:47:06.737Z,72.05
2023-11-25T16:49:41.058Z,71.97
2023-11-25T16:52:10.424Z,71.94
2023-11-25T16:54:37.734Z,71.90
2023-11-25T16:57:04.711Z,71.65
2023-11-25T16:59:31.704Z,71.45
2023-11-25T17:01:58.880Z,71.59
2023-11-25T17:04:26.024Z,71.68
2023-11-25T17:06:53.060Z,72.25
2023-11-25T17:09:20.928Z,71.91
2023-11-25T17:11:47.904Z,72.50
2023-11-25T17:14:15.031Z,72.81
2023-11-25T17:16:42.201Z,73.11
2023-11-25T17:19:11.534Z,73.49
2023-11-25T17:21:38.511Z,73.27
2023-11-25T17:24:06.642Z,73.25
2023-11-25T17:26:33.708Z,73.59
2023-11-25T17:29:00.944Z,73.79
2023-11-25T17:31:28.217Z,73.81
2023-11-25T17:33:55.235Z,73.66
2023-11-25T17:36:22.178Z,73.63
2023-11-25T17:38:49.345Z,74.06
2023-11-25T17:41:19.383Z,74.26
2023-11-25T17:43:46.550Z,74.33
2023-11-25T17:46:14.566Z,74.36
2023-11-25T17:48:42.497Z,74.20
2023-11-25T17:51:09.682Z,74.60
2023-11-25T17:53:36.875Z,74.51
2023-11-25T17:56:04.405Z,74.72
2023-11-25T17:58:31.411Z,74.96
2023-11-25T18:00:58.694Z,75.20
2023-11-25T18:03:25.781Z,75.58
2023-11-25T18:05:52.781Z,75.66
2023-11-25T18:08:19.857Z,75.59
2023-11-25T18:10:47.035Z,75.73
2023-11-25T18:13:14.161Z,75.66
2023-11-25T18:15:41.291Z,75.38
2023-11-25T18:18:08.401Z,75.69
2023-11-25T18:20:35.560Z,75.45
2023-11-25T18:23:02.598Z,75.30
2023-11-25T18:25:30.431Z,75.80
2023-11-25T18:27:57.589Z,75.32
2023-11-25T18:30:25.724Z,75.57
2023-11-25T18:32:53.257Z,75.42
2023-11-25T18:35:20.269Z,74.98
2023-11-25T18:37:48.016Z,74.93
2023-11-25T18:40:15.908Z,74.56
2023-11-25T18:42:42.987Z,74.57
2023-11-25T18:45:10.911Z,74.48
2023-11-25T18:47:38.220Z,74.47
2023-11-25T18:50:06.483Z,74.25
2023-11-25T18:52:33.544Z,73.97
2023-11-25T18:55:00.669Z,73.96
2023-11-25T18:57:28.045Z,73.87
2023-11-25T18:59:55.120Z,73.93
2023-11-25T19:02:22.256Z,73.84
2023-11-25T19:04:49.435Z,73.43
2023-11-25T19:07:16.506Z,73.22
2023-11-25T19:09:43.483Z,72.98
2023-11-25T19:12:12.502Z,73.34
2023-11-25T19:14:39.531Z,72.73
2023-11-25T19:17:09.046Z,72.74
2023-11-25T19:19:36.640Z,72.50
2023-11-25T19:22:04.715Z,72.64
2023-11-25T19:24:31.844Z,72.31
2023-11-25T19:26:58.902Z,72.28
2023-11-25T19:29:26.224Z,72.11
2023-11-25T19:31:53.406Z,72.27
2023-11-25T19:34:20.524Z,72.70
2023-11-25T19:36:48.430Z,72.97
2023-11-25T19:39:17.041Z,73.26
2023-11-25T19:41:44.142Z,73.05
2023-11-25T19:44:11.285Z,73.53
2023-11-25T19:46:38.353Z,73.98
2023-11-25T19:49:06.025Z,73.96
2023-11-25T19:51:33.115Z,73.89
2023-11-25T19:54:01.816Z,73.76
2023-11-25T19:56:32.110Z,73.61
2023-11-25T19:58:59.191Z,73.31
2023-11-25T20:01:26.221Z,73.21
2023-11-25T20:03:53.265Z,73.47
2023-11-25T20:06:20.331Z,73.57
2023-11-25T20:08:47.417Z,73.68
2023-11-25T20:11:14.466Z,74.11
2023-11-25T20:13:41.482Z,74.27
2023-11-25T20:16:08.818Z,74.94
2023-11-25T20:18:35.915Z,74.46
2023-11-25T20:21:02.930Z,74.74
2023-11-25T20:23:29.968Z,75.15
2023-11-25T20:25:56.955Z,75.87
2023-11-25T20:28:24.132Z,75.98
2023-11-25T20:30:51.110Z,76.62
2023-11-25T20:33:18.125Z,76.39
2023-11-25T20:35:45.163Z,76.43
2023-11-25T20:38:12.228Z,76.73
2023-11-25T20:40:39.387Z,76.22
2023-11-25T20:43:06.502Z,76.15
2023-11-25T20:45:35.897Z,75.72
2023-11-25T20:48:05.392Z,75.36
2023-11-25T20:50:34.689Z,75.20
2023-11-25T20:53:03.456Z,75.04
2023-11-25T20:55:30.587Z,75.06
2023-11-25T20:57:57.724Z,75.20
2023-11-25T21:00:24.918Z,74.75
2023-11-25T21:02:52.031Z,74.50
2023-11-25T21:05:20.808Z,74.19
2023-11-25T21:07:47.830Z,74.03
2023-11-25T21:10:15.956Z,74.70
2023-11-25T21:12:43.087Z,74.96
2023-11-25T21:15:10.682Z,75.43
2023-11-25T21:17:37.826Z,75.55
2023-11-25T21:20:06.192Z,75.47
2023-11-25T21:22:34.241Z,75.31
2023-11-25T21:25:02.911Z,74.90
2023-11-25T21:27:31.970Z,74.09
2023-11-25T21:29:58.964Z,74.28
2023-11-25T21:32:30.070Z,74.01
2023-11-25T21:34:57.278Z,73.76
2023-11-25T21:37:24.882Z,73.71
2023-11-25T21:39:52.350Z,73.72
2023-11-25T21:42:19.555Z,73.07
2023-11-25T21:44:47.991Z,72.36
2023-11-25T21:47:16.197Z,71.95
2023-11-25T21:49:43.533Z,71.20
2023-11-25T21:52:11.312Z,71.29
2023-11-25T21:54:39.867Z,70.55
2023-11-25T21:57:08.480Z,69.74
2023-11-25T21:59:35.536Z,70.15
2023-11-25T22:02:02.917Z,70.60
2023-11-25T22:04:30.152Z,70.67
2023-11-25T22:06:57.113Z,70.96
2023-11-25T22:09:24.226Z,70.73
2023-11-25T22:11:51.297Z,70.25
2023-11-25T22:14:18.411Z,70.20
2023-11-25T22:16:46.009Z,69.94
2023-11-25T22:19:13.301Z,69.39
2023-11-25T22:21:41.124Z,69.02
2023-11-25T22:24:12.522Z,69.25
2023-11-25T22:26:48.657Z,69.49
2023-11-25T22:29:15.899Z,69.52
2023-11-25T22:31:43.596Z,68.75
2023-11-25T22:34:12.406Z,69.86
2023-11-25T22:36:39.680Z,70.33
2023-11-25T22:39:08.140Z,70.93
2023-11-25T22:41:36.257Z,70.65
2023-11-25T22:44:03.532Z,71.04
2023-11-25T22:46:30.692Z,71.01
2023-11-25T22:48:57.750Z,71.04
2023-11-25T22:51:25.488Z,71.44
2023-11-25T22:53:54.709Z,71.71
2023-11-25T22:56:21.716Z,72.12
2023-11-25T22:58:48.708Z,72.49
2023-11-25T23:01:26.250Z,72.21
2023-11-25T23:03:56.181Z,72.22
2023-11-25T23:06:24.671Z,71.62
2023-11-25T23:08:53.814Z,71.12
2023-11-25T23:11:22.125Z,71.04
2023-11-25T23:13:50.647Z,70.88
2023-11-25T23:16:19.633Z,70.81
2023-11-25T23:18:46.807Z,70.28
2023-11-25T23:21:13.754Z,70.42
2023-11-25T23:23:46.432Z,70.57
2023-11-25T23:26:16.234Z,71.23
2023-11-25T23:28:43.749Z,71.13
2023-11-25T23:31:10.817Z,71.16
2023-11-25T23:33:38.803Z,71.45
2023-11-25T23:36:06.421Z,71.80
2023-11-25T23:38:34.224Z,72.57
2023-11-25T23:41:01.840Z,73.06
2023-11-25T23:43:29.895Z,72.79
2023-11-25T23:45:57.710Z,73.71
2023-11-25T23:48:24.949Z,74.08
2023-11-25T23:50:52.445Z,74.33
2023-11-25T23:53:22.268Z,73.88
2023-11-25T23:55:50.379Z,73.88
2023-11-25T23:58:17.545Z,74.10
